Time;durP1;ratioP1;P1;durP2;ratioP2;P2;SDS_P1;SDS_P2;PMS_P1;PMS_P2;Temp;Humidity;BMP_temperature;BMP_pressure;BME280_temperature;BME280_humidity;BME280_pressure;Samples;Min_cycle;Max_cycle;Signal;HPM_P1;HPM_P2
2022/11/24 00:00:16;;;;;;;15.83;13.20;;;;;;;11.38;100.00;100515.56;2047409;28;20207;-67
2022/11/24 00:01:21;;;;;;;14.57;12.80;;;;;;;11.39;100.00;100510.78;2047997;28;20203;-65
2022/11/24 00:02:22;;;;;;;14.57;12.20;;;;;;;11.21;100.00;100486.34;2047224;28;20501;-65
2022/11/24 00:03:22;;;;;;;15.37;13.27;;;;;;;11.40;100.00;100515.13;2047616;28;20463;-66
2022/11/24 00:04:23;;;;;;;15.07;12.33;;;;;;;11.40;100.00;100515.91;2048618;28;20180;-66
2022/11/24 00:05:23;;;;;;;15.07;12.63;;;;;;;11.39;100.00;100513.56;2048095;28;20234;-66
2022/11/24 00:06:24;;;;;;;15.53;13.23;;;;;;;11.41;100.00;100508.34;2048105;29;20191;-66
2022/11/24 00:07:25;;;;;;;15.57;12.43;;;;;;;11.36;100.00;100515.22;2048398;28;20560;-66
2022/11/24 00:08:25;;;;;;;16.60;13.60;;;;;;;11.37;100.00;100508.44;2047720;28;20191;-66
2022/11/24 00:09:26;;;;;;;15.90;13.07;;;;;;;11.36;100.00;100508.88;2048282;28;20214;-66
2022/11/24 00:10:26;;;;;;;16.67;14.03;;;;;;;11.36;100.00;100514.44;2047933;28;20677;-65
2022/11/24 00:11:29;;;;;;;17.63;14.03;;;;;;;11.37;100.00;100511.22;2048224;28;20194;-66
2022/11/24 00:12:29;;;;;;;15.97;14.10;;;;;;;10.48;100.00;100383.06;2047893;28;20274;-65
2022/11/24 00:13:31;;;;;;;18.37;14.83;;;;;;;11.31;100.00;100517.75;2048129;28;20443;-66
2022/11/24 00:14:31;;;;;;;16.20;14.17;;;;;;;11.33;100.00;100513.31;2047891;28;20199;-65
2022/11/24 00:15:32;;;;;;;17.57;14.40;;;;;;;11.33;100.00;100513.31;2047282;29;20525;-66
2022/11/24 00:16:35;;;;;;;17.67;14.70;;;;;;;11.33;100.00;100520.88;2047746;28;20239;-65
2022/11/24 00:17:35;;;;;;;17.47;15.20;;;;;;;11.33;100.00;100523.66;2048039;29;20206;-65
2022/11/24 00:18:37;;;;;;;18.53;15.47;;;;;;;10.95;100.00;100450.63;2047842;29;20960;-66
2022/11/24 00:19:37;;;;;;;18.20;15.03;;;;;;;11.42;100.00;100521.03;2047953;28;20183;-66
2022/11/24 00:20:37;;;;;;;20.17;15.70;;;;;;;11.39;100.00;100516.34;2047988;28;20431;-66
2022/11/24 00:21:38;;;;;;;21.00;16.27;;;;;;;11.39;100.00;100514.34;2048429;29;20267;-65
2022/11/24 00:22:38;;;;;;;18.07;14.63;;;;;;;11.41;100.00;100520.22;2047851;29;20203;-65
2022/11/24 00:23:39;;;;;;;18.73;14.57;;;;;;;11.28;100.00;100505.53;2047813;29;20184;-65
2022/11/24 00:24:39;;;;;;;17.63;14.87;;;;;;;11.41;100.00;100519.44;2047768;29;20697;-65
2022/11/24 00:25:40;;;;;;;17.77;15.13;;;;;;;11.42;100.00;100523.78;2047614;29;20204;-66
2022/11/24 00:26:40;;;;;;;18.80;15.03;;;;;;;11.42;100.00;100523.78;2047855;28;20195;-65
2022/11/24 00:27:40;;;;;;;18.60;15.73;;;;;;;11.43;100.00;100520.56;2047946;29;20187;-67
2022/11/24 00:28:42;;;;;;;17.80;15.50;;;;;;;11.44;100.00;100519.38;2047461;29;20179;-65
2022/11/24 00:29:43;;;;;;;20.03;15.50;;;;;;;11.38;100.00;100509.25;2047605;28;20197;-66
2022/11/24 00:30:43;;;;;;;19.97;15.70;;;;;;;11.34;100.00;100500.22;2048387;28;20434;-65
2022/11/24 00:31:44;;;;;;;20.07;15.53;;;;;;;11.43;100.00;100526.09;2048041;28;20199;-65
2022/11/24 00:32:44;;;;;;;17.77;15.13;;;;;;;11.44;100.00;100527.69;2047609;28;20647;-66
2022/11/24 00:33:46;;;;;;;17.67;15.03;;;;;;;11.43;100.00;100528.13;2048006;28;20282;-66
2022/11/24 00:34:47;;;;;;;18.37;15.47;;;;;;;11.48;100.00;100525.56;2047848;28;20199;-66
2022/11/24 00:35:58;;;;;;;18.80;15.27;;;;;;;11.18;100.00;100483.66;2047917;28;20501;-66
2022/11/24 00:36:59;;;;;;;21.37;16.07;;;;;;;11.45;100.00;100534.00;2047763;28;20223;-66
2022/11/24 00:37:59;;;;;;;19.93;15.97;;;;;;;10.80;100.00;100428.09;2047387;28;20441;-66
2022/11/24 00:39:03;;;;;;;19.63;15.63;;;;;;;11.43;100.00;100525.34;2048171;28;20270;-66
2022/11/24 00:40:04;;;;;;;21.40;17.10;;;;;;;11.41;100.00;100533.31;2047857;28;20274;-65
2022/11/24 00:41:05;;;;;;;19.30;15.57;;;;;;;11.23;100.00;100506.06;2048200;28;20431;-65
2022/11/24 00:42:05;;;;;;;18.77;15.30;;;;;;;11.41;100.00;100536.09;2047857;28;20270;-65
2022/11/24 00:43:06;;;;;;;19.07;15.10;;;;;;;11.17;100.00;100505.06;2047886;28;20510;-66
2022/11/24 00:44:06;;;;;;;18.60;15.77;;;;;;;10.62;100.00;100419.50;2047732;28;20204;-66
2022/11/24 00:45:07;;;;;;;19.60;16.07;;;;;;;11.43;100.00;100544.78;2047951;28;20208;-65
2022/11/24 00:46:08;;;;;;;19.67;15.40;;;;;;;11.40;100.00;100546.44;2047754;29;20211;-65
2022/11/24 00:47:08;;;;;;;18.70;15.40;;;;;;;11.36;100.00;100531.06;2047791;28;20259;-66
2022/11/24 00:48:09;;;;;;;19.07;15.60;;;;;;;10.72;100.00;100432.25;2047362;28;20242;-66
2022/11/24 00:49:09;;;;;;;20.80;15.70;;;;;;;11.47;100.00;100540.66;2048010;29;20249;-66
2022/11/24 00:50:09;;;;;;;19.23;15.63;;;;;;;11.47;100.00;100537.88;2047878;29;20204;-66
2022/11/24 00:51:12;;;;;;;19.47;16.00;;;;;;;11.48;100.00;100547.00;2047962;29;20207;-66
2022/11/24 00:52:12;;;;;;;18.20;15.57;;;;;;;11.45;100.00;100547.88;2047999;28;20214;-65
2022/11/24 00:53:13;;;;;;;19.13;15.97;;;;;;;11.37;100.00;100535.44;2047492;29;20538;-66
2022/11/24 00:54:13;;;;;;;19.57;15.73;;;;;;;11.41;100.00;100550.75;2047990;28;20192;-65
2022/11/24 00:55:14;;;;;;;19.67;16.50;;;;;;;11.41;100.00;100547.19;2047674;28;20735;-65
2022/11/24 00:56:14;;;;;;;19.60;15.50;;;;;;;11.41;100.00;100555.50;2047772;28;20192;-66
2022/11/24 00:57:15;;;;;;;20.20;14.57;;;;;;;11.39;100.00;100546.84;2047351;29;20234;-65
2022/11/24 00:58:15;;;;;;;20.47;16.00;;;;;;;11.49;100.00;100557.66;2047705;28;20274;-66
2022/11/24 00:59:15;;;;;;;22.50;16.03;;;;;;;11.41;100.00;100539.66;2046506;28;20202;-66
2022/11/24 01:00:17;;;;;;;18.67;15.00;;;;;;;11.47;100.00;100553.78;2048028;28;20203;-65
2022/11/24 01:01:20;;;;;;;20.70;17.00;;;;;;;11.44;100.00;100554.66;2047700;28;20203;-67
2022/11/24 01:02:21;;;;;;;20.17;16.43;;;;;;;11.41;100.00;100558.28;2047907;28;20526;-66
2022/11/24 01:03:21;;;;;;;18.63;14.60;;;;;;;11.36;100.00;100562.38;2046885;28;20649;-66
2022/11/24 01:04:22;;;;;;;19.00;13.70;;;;;;;11.34;100.00;100562.06;2047645;29;20617;-66
2022/11/24 01:05:22;;;;;;;18.83;14.47;;;;;;;11.37;100.00;100552.06;2047507;28;20194;-65
2022/11/24 01:06:24;;;;;;;20.47;16.00;;;;;;;11.36;100.00;100559.63;2048081;28;20196;-65
2022/11/24 01:07:25;;;;;;;19.87;15.03;;;;;;;11.36;100.00;100556.84;2048157;28;20283;-66
2022/11/24 01:08:25;;;;;;;22.57;16.53;;;;;;;11.20;100.00;100540.25;2047184;29;20452;-66
2022/11/24 01:09:26;;;;;;;21.00;17.57;;;;;;;11.30;100.00;100558.59;2047297;28;20270;-67
2022/11/24 01:10:26;;;;;;;19.80;16.70;;;;;;;11.31;100.00;100549.06;2047060;29;20211;-65
2022/11/24 01:12:00;;;;;;;19.93;16.50;;;;;;;11.34;100.00;100550.16;2047163;28;20610;-66
2022/11/24 01:12:50;;;;;;;20.97;16.10;;;;;;;11.38;100.00;100553.63;2047364;28;20213;-65
2022/11/24 01:13:56;;;;;;;20.23;16.53;;;;;;;11.34;100.00;100550.97;2046685;28;20450;-65
2022/11/24 01:14:57;;;;;;;20.93;16.23;;;;;;;11.35;100.00;100551.72;2047683;28;20192;-66
2022/11/24 01:15:58;;;;;;;20.67;16.40;;;;;;;11.34;100.00;100555.72;2047297;28;20489;-65
2022/11/24 01:16:58;;;;;;;19.43;15.70;;;;;;;10.66;100.00;100456.19;2047421;28;20989;-66
2022/11/24 01:17:59;;;;;;;20.43;16.17;;;;;;;11.36;100.00;100559.63;2047655;28;20206;-67
2022/11/24 01:19:00;;;;;;;19.73;16.33;;;;;;;11.37;100.00;100560.41;2048262;28;20444;-66
2022/11/24 01:20:00;;;;;;;17.77;15.47;;;;;;;11.40;100.00;100560.31;2047633;28;20195;-66
2022/11/24 01:21:03;;;;;;;20.97;15.63;;;;;;;11.46;100.00;100558.53;2047648;28;20488;-66
2022/11/24 01:22:03;;;;;;;19.37;15.93;;;;;;;11.44;100.00;100558.22;2047503;28;20197;-66
2022/11/24 01:23:05;;;;;;;20.27;16.00;;;;;;;11.46;100.00;100560.53;2047104;29;20450;-65
2022/11/24 01:24:05;;;;;;;18.50;15.20;;;;;;;11.45;100.00;100556.97;2047277;28;20250;-66
2022/11/24 01:25:06;;;;;;;17.90;14.70;;;;;;;11.44;100.00;100576.84;2047197;28;20438;-66
2022/11/24 01:26:08;;;;;;;20.37;16.00;;;;;;;11.45;100.00;100556.19;2047607;28;20251;-66
2022/11/24 01:27:08;;;;;;;19.20;15.67;;;;;;;11.44;100.00;100560.97;2047722;29;20344;-66
2022/11/24 01:28:09;;;;;;;20.23;16.07;;;;;;;10.95;100.00;100481.91;2047516;28;20443;-67
2022/11/24 01:29:10;;;;;;;20.73;16.37;;;;;;;11.45;100.00;100559.75;2047335;28;20261;-66
2022/11/24 01:30:11;;;;;;;19.80;15.60;;;;;;;11.43;100.00;100558.66;2047476;28;20196;-66
2022/11/24 01:31:12;;;;;;;21.27;15.20;;;;;;;11.42;100.00;100560.63;2047655;28;21014;-66
2022/11/24 01:32:12;;;;;;;20.63;15.97;;;;;;;11.47;100.00;100556.56;2047377;29;20200;-65
2022/11/24 01:33:12;;;;;;;19.27;15.30;;;;;;;11.53;100.00;100565.88;2047108;28;20195;-65
2022/11/24 01:34:13;;;;;;;19.53;15.27;;;;;;;11.54;100.00;100559.88;2047295;29;20304;-66
2022/11/24 01:35:13;;;;;;;21.23;15.67;;;;;;;11.51;100.00;100557.22;2048013;28;20730;-66
2022/11/24 01:36:14;;;;;;;20.83;15.57;;;;;;;11.55;100.00;100558.69;2047532;29;20218;-66
2022/11/24 01:37:14;;;;;;;17.53;15.03;;;;;;;11.51;100.00;100554.44;2047424;28;20229;-66
2022/11/24 01:38:15;;;;;;;17.60;14.77;;;;;;;11.56;100.00;100562.22;2047226;28;20467;-66
2022/11/24 01:39:15;;;;;;;17.07;14.43;;;;;;;11.57;100.00;100561.00;2047557;28;20258;-66
2022/11/24 01:40:16;;;;;;;17.83;14.80;;;;;;;11.55;100.00;100569.78;2047344;28;20279;-66
2022/11/24 01:41:20;;;;;;;20.00;15.13;;;;;;;11.55;100.00;100567.00;2047466;29;20224;-66
2022/11/24 01:42:20;;;;;;;18.50;14.87;;;;;;;11.55;100.00;100564.22;2047247;28;20195;-66
2022/11/24 01:43:21;;;;;;;19.07;14.60;;;;;;;11.52;100.00;100562.31;2046765;29;20485;-66
2022/11/24 01:44:24;;;;;;;19.13;15.43;;;;;;;11.50;100.00;100564.78;2055167;28;20270;-66
2022/11/24 01:45:31;;;;;;;17.83;14.63;;;;;;;11.51;100.00;100569.09;2054603;28;20197;-66
2022/11/24 01:46:42;;;;;;;18.87;15.00;;;;;;;10.59;100.00;100425.09;2047308;28;20461;-66
2022/11/24 01:47:43;;;;;;;17.67;15.00;;;;;;;11.54;100.00;100567.44;2047575;28;20794;-67
2022/11/24 01:48:49;;;;;;;17.93;15.00;;;;;;;11.52;100.00;100565.09;2047105;28;20549;-66
2022/11/24 01:49:57;;;;;;;20.33;15.13;;;;;;;11.43;100.00;100556.63;2047357;28;20207;-65
2022/11/24 01:51:12;;;;;;;19.67;16.07;;;;;;;11.46;100.00;100561.31;2047085;28;21015;-66
2022/11/24 01:52:38;;;;;;;20.20;16.90;;;;;;;11.35;100.00;100563.59;2047614;29;20434;-65
2022/11/24 01:53:42;;;;;;;19.83;16.63;;;;;;;11.19;100.00;100560.09;2048224;28;20876;-66
2022/11/24 01:54:50;;;;;;;23.17;18.23;;;;;;;11.11;100.00;100564.25;2047803;29;20431;-65
2022/11/24 01:55:52;;;;;;;21.57;16.57;;;;;;;10.94;100.00;100551.66;2047634;29;20430;-66
2022/11/24 01:56:56;;;;;;;20.63;17.13;;;;;;;11.02;100.00;100578.75;2047161;29;20517;-65
2022/11/24 01:58:07;;;;;;;24.43;18.17;;;;;;;10.93;100.00;100572.28;2047064;28;20459;-65
2022/11/24 01:59:12;;;;;;;22.43;16.97;;;;;;;11.02;100.00;100578.00;2047075;28;20454;-67
2022/11/24 02:00:13;;;;;;;22.67;17.87;;;;;;;10.81;100.00;100536.97;2047628;29;20431;-65
2022/11/24 02:01:14;;;;;;;21.07;17.23;;;;;;;11.06;100.00;100578.69;2047624;28;20842;-66
2022/11/24 02:02:15;;;;;;;22.17;16.97;;;;;;;11.04;100.00;100572.78;2047158;28;20474;-65
2022/11/24 02:03:19;;;;;;;20.23;16.70;;;;;;;11.04;100.00;100565.25;2047002;29;20194;-66
2022/11/24 02:04:24;;;;;;;21.23;16.83;;;;;;;11.19;100.00;100577.53;2047386;28;20196;-66
2022/11/24 02:05:43;;;;;;;23.77;17.20;;;;;;;11.25;100.00;100584.09;2047202;28;20625;-65
2022/11/24 02:06:46;;;;;;;20.43;16.63;;;;;;;11.23;100.00;100586.50;2046518;29;20509;-67
2022/11/24 02:07:47;;;;;;;20.50;16.93;;;;;;;11.27;100.00;100589.22;2047055;29;20465;-66
2022/11/24 02:09:04;;;;;;;20.80;17.53;;;;;;;11.30;100.00;100589.13;2046832;29;20497;-66
2022/11/24 02:10:12;;;;;;;19.47;16.03;;;;;;;11.28;100.00;100593.53;2046738;29;20493;-65
2022/11/24 02:11:13;;;;;;;19.93;17.20;;;;;;;11.29;100.00;100595.09;2047380;28;20494;-65
2022/11/24 02:12:13;;;;;;;21.70;17.20;;;;;;;11.31;100.00;100606.53;2047187;28;20940;-66
2022/11/24 02:13:14;;;;;;;19.63;16.23;;;;;;;11.29;100.00;100620.06;2047500;28;20230;-65
2022/11/24 02:14:17;;;;;;;22.03;17.17;;;;;;;11.29;100.00;100604.22;2047219;28;20210;-67
2022/11/24 02:15:20;;;;;;;20.20;16.47;;;;;;;11.31;100.00;100621.19;2047301;28;20214;-66
2022/11/24 02:16:20;;;;;;;20.80;15.80;;;;;;;11.33;100.00;100601.34;2047083;28;20758;-66
2022/11/24 02:17:21;;;;;;;21.23;15.93;;;;;;;11.32;100.00;100597.00;2047435;28;20451;-66
2022/11/24 02:18:21;;;;;;;19.63;16.60;;;;;;;11.28;100.00;100601.88;2046592;29;20275;-66
2022/11/24 02:19:39;;;;;;;19.17;15.90;;;;;;;11.08;100.00;100593.69;2047343;28;20204;-65
2022/11/24 02:20:40;;;;;;;20.83;16.07;;;;;;;11.25;100.00;100608.28;2046680;29;20565;-67
2022/11/24 02:21:40;;;;;;;19.27;16.30;;;;;;;11.25;100.00;100600.75;2049316;28;20451;-65
2022/11/24 02:23:14;;;;;;;18.87;15.67;;;;;;;10.58;100.00;100501.13;2049601;28;20219;-66
2022/11/24 02:24:30;;;;;;;20.60;15.57;;;;;;;11.21;100.00;100613.91;2049799;28;20210;-66
2022/11/24 02:26:06;;;;;;;18.77;14.93;;;;;;;11.17;100.00;100604.91;2049257;28;20456;-66
2022/11/24 02:27:09;;;;;;;18.53;15.23;;;;;;;11.21;100.00;100604.81;2049123;28;20451;-66
2022/11/24 02:28:16;;;;;;;17.83;14.97;;;;;;;11.26;100.00;100616.16;2049828;29;20454;-67
2022/11/24 02:29:18;;;;;;;20.47;15.70;;;;;;;11.28;100.00;100618.50;2049940;29;20875;-66
2022/11/24 02:30:18;;;;;;;18.97;14.70;;;;;;;11.15;100.00;100612.91;2049775;28;20451;-66
2022/11/24 02:31:19;;;;;;;19.53;14.80;;;;;;;10.96;100.00;100613.78;2050097;28;20446;-66
2022/11/24 02:32:20;;;;;;;17.77;14.67;;;;;;;10.85;100.00;100616.06;2049789;28;20187;-67
2022/11/24 02:33:24;;;;;;;17.83;14.47;;;;;;;10.64;100.00;100608.25;2049490;28;20289;-66
2022/11/24 02:34:24;;;;;;;20.93;14.50;;;;;;;10.51;100.00;100615.69;2049085;28;20530;-66
2022/11/24 02:35:26;;;;;;;17.93;14.27;;;;;;;10.41;100.00;100624.25;2049461;29;21166;-66
2022/11/24 02:36:27;;;;;;;17.20;13.40;;;;;;;10.16;100.00;100626.81;2049649;28;20201;-65
2022/11/24 02:37:27;;;;;;;18.17;14.20;;;;;;;10.15;100.00;100623.25;2049668;28;20456;-65
2022/11/24 02:38:30;;;;;;;16.13;14.00;;;;;;;10.06;100.00;100630.59;2049873;28;20291;-65
2022/11/24 02:39:30;;;;;;;18.47;12.50;;;;;;;10.02;100.00;100625.09;2050114;28;20218;-65
2022/11/24 02:40:31;;;;;;;17.30;14.00;;;;;;;9.98;100.00;100624.41;2049957;28;20462;-66
2022/11/24 02:41:32;;;;;;;17.53;13.80;;;;;;;9.90;100.00;100609.13;2050210;28;20290;-66
2022/11/24 02:42:38;;;;;;;16.70;13.40;;;;;;;9.99;100.00;100625.94;2049243;28;20263;-66
2022/11/24 02:43:43;;;;;;;17.27;13.47;;;;;;;9.52;100.00;100560.13;2049794;28;20202;-66
2022/11/24 02:44:49;;;;;;;14.70;12.73;;;;;;;9.76;100.00;100616.97;2049950;28;20442;-66
2022/11/24 02:45:50;;;;;;;14.60;12.17;;;;;;;9.89;100.00;100637.25;2049955;28;20830;-66
2022/11/24 02:47:01;;;;;;;14.87;12.27;;;;;;;9.40;100.00;100569.88;2049605;28;20733;-66
2022/11/24 02:48:02;;;;;;;14.13;10.63;;;;;;;8.78;100.00;100494.47;2049638;28;20646;-66
2022/11/24 02:49:02;;;;;;;10.57;8.53;;;;;;;9.65;100.00;100638.53;2049812;28;20885;-66
2022/11/24 02:50:03;;;;;;;11.87;9.00;;;;;;;9.53;100.00;100628.88;2050284;28;20220;-66
2022/11/24 02:51:04;;;;;;;11.00;8.97;;;;;;;9.49;100.00;100638.47;2049975;28;20210;-66
2022/11/24 02:52:04;;;;;;;12.60;9.20;;;;;;;9.45;100.00;100638.53;2049771;28;20705;-66
2022/11/24 02:53:05;;;;;;;10.63;8.90;;;;;;;9.49;100.00;100644.75;2049544;28;20281;-67
2022/11/24 02:54:05;;;;;;;15.00;9.47;;;;;;;9.47;100.00;100644.41;2049952;28;20238;-66
2022/11/24 02:55:06;;;;;;;10.93;8.80;;;;;;;9.46;100.00;100653.91;2049646;28;20202;-66
2022/11/24 02:56:06;;;;;;;8.57;6.93;;;;;;;9.37;100.00;100644.63;2049731;28;20215;-66
2022/11/24 02:57:07;;;;;;;9.83;7.30;;;;;;;9.35;100.00;100641.47;2049497;28;20636;-66
2022/11/24 02:58:07;;;;;;;9.17;7.57;;;;;;;9.39;100.00;100640.19;2049811;29;20194;-68
2022/11/24 02:59:08;;;;;;;8.27;6.43;;;;;;;9.37;100.00;100645.38;2049768;28;20203;-67
2022/11/24 03:00:09;;;;;;;8.37;6.43;;;;;;;9.29;100.00;100649.50;2049984;28;20290;-67
2022/11/24 03:01:09;;;;;;;7.83;6.80;;;;;;;9.32;100.00;100645.88;2049590;28;20199;-66
2022/11/24 03:02:09;;;;;;;8.37;6.50;;;;;;;8.67;100.00;100538.84;2049991;28;20279;-66
2022/11/24 03:03:10;;;;;;;8.63;6.70;;;;;;;9.33;100.00;100630.84;2049617;28;20197;-66
2022/11/24 03:04:11;;;;;;;8.00;6.70;;;;;;;8.53;100.00;100516.22;2049662;28;20286;-66
2022/11/24 03:05:12;;;;;;;9.80;7.27;;;;;;;9.41;100.00;100656.38;2049603;28;20278;-67
2022/11/24 03:06:12;;;;;;;9.27;7.00;;;;;;;9.43;100.00;100652.00;2050178;28;20477;-66
2022/11/24 03:07:13;;;;;;;9.87;6.57;;;;;;;9.33;100.00;100669.56;2049875;28;20732;-66
2022/11/24 03:08:14;;;;;;;8.83;6.40;;;;;;;9.32;100.00;100656.94;2049478;28;20196;-66
2022/11/24 03:09:14;;;;;;;7.50;6.07;;;;;;;9.31;100.00;100668.41;2049601;28;20736;-67
2022/11/24 03:10:15;;;;;;;7.13;5.30;;;;;;;9.20;100.00;100648.47;2049490;28;20673;-68
2022/11/24 03:11:16;;;;;;;7.00;5.30;;;;;;;9.08;100.00;100654.63;2049798;28;20290;-66
2022/11/24 03:12:16;;;;;;;6.67;5.60;;;;;;;9.05;100.00;100658.22;2049622;28;20180;-66
2022/11/24 03:13:16;;;;;;;6.27;5.20;;;;;;;8.93;100.00;100643.03;2049347;28;20188;-67
2022/11/24 03:14:17;;;;;;;6.00;5.03;;;;;;;8.99;100.00;100659.91;2050193;28;20698;-67
2022/11/24 03:15:17;;;;;;;6.07;4.90;;;;;;;8.27;100.00;100544.69;2049552;28;20253;-67
2022/11/24 03:16:18;;;;;;;6.23;4.40;;;;;;;8.96;100.00;100653.22;2049382;29;20724;-66
2022/11/24 03:17:18;;;;;;;5.10;4.13;;;;;;;8.93;100.00;100667.13;2049826;28;20245;-67
2022/11/24 03:18:18;;;;;;;5.10;4.07;;;;;;;8.92;100.00;100662.78;2049173;28;20202;-66
2022/11/24 03:19:19;;;;;;;5.50;3.93;;;;;;;8.90;100.00;100649.41;2049540;28;20281;-66
2022/11/24 03:20:19;;;;;;;5.23;3.63;;;;;;;8.98;100.00;100658.34;2048690;28;20187;-66
2022/11/24 03:21:20;;;;;;;4.70;3.50;;;;;;;8.92;100.00;100644.22;2050051;28;20760;-67
2022/11/24 03:22:20;;;;;;;3.83;2.80;;;;;;;8.95;100.00;100665.50;2050123;28;20645;-66
2022/11/24 03:23:20;;;;;;;4.10;3.03;;;;;;;8.46;100.00;100585.41;2049361;28;20647;-66
2022/11/24 03:24:21;;;;;;;3.30;2.93;;;;;;;8.83;100.00;100674.38;2049793;28;20250;-66
2022/11/24 03:25:21;;;;;;;3.73;2.87;;;;;;;8.85;100.00;100660.94;2049488;29;20290;-65
2022/11/24 03:26:24;;;;;;;3.77;2.70;;;;;;;8.60;100.00;100621.06;2049830;28;20218;-66
2022/11/24 03:27:25;;;;;;;4.47;2.90;;;;;;;8.75;100.00;100659.09;2049764;28;20199;-66
2022/11/24 03:28:25;;;;;;;4.10;2.57;;;;;;;8.80;100.00;100671.66;2049183;28;20733;-68
2022/11/24 03:29:25;;;;;;;4.77;2.77;;;;;;;8.80;100.00;100663.38;2049597;28;20193;-67
2022/11/24 03:30:26;;;;;;;4.23;2.40;;;;;;;8.78;100.00;100668.53;2050079;28;20233;-66
2022/11/24 03:31:26;;;;;;;3.33;2.50;;;;;;;8.75;100.00;100672.13;2049826;28;20655;-67
2022/11/24 03:32:27;;;;;;;3.50;2.90;;;;;;;8.72;100.00;100676.50;2049529;28;20201;-66
2022/11/24 03:33:27;;;;;;;5.47;2.97;;;;;;;8.71;100.00;100677.72;2048191;28;20728;-66
2022/11/24 03:34:28;;;;;;;3.70;2.80;;;;;;;8.75;100.00;100675.69;2048447;28;20196;-66
2022/11/24 03:35:28;;;;;;;2.93;2.50;;;;;;;8.77;100.00;100675.28;2048585;28;20241;-67
2022/11/24 03:36:29;;;;;;;2.77;2.13;;;;;;;8.77;100.00;100675.28;2048509;28;20187;-66
2022/11/24 03:37:29;;;;;;;2.63;2.30;;;;;;;8.75;100.00;100678.44;2048162;28;20195;-66
2022/11/24 03:38:30;;;;;;;2.70;2.20;;;;;;;8.80;100.00;100682.72;2048474;28;20668;-66
2022/11/24 03:39:30;;;;;;;3.10;2.40;;;;;;;8.88;100.00;100678.66;2048584;28;20199;-67
2022/11/24 03:40:30;;;;;;;2.47;2.10;;;;;;;8.86;100.00;100683.81;2048445;28;20285;-66
2022/11/24 03:41:31;;;;;;;4.37;2.30;;;;;;;8.88;100.00;100686.94;2048476;28;20812;-66
2022/11/24 03:42:31;;;;;;;2.43;1.90;;;;;;;8.86;100.00;100678.28;2048479;28;20213;-66
2022/11/24 03:43:32;;;;;;;2.10;1.87;;;;;;;8.78;100.00;100679.59;2047955;28;20285;-66
2022/11/24 03:44:32;;;;;;;3.93;2.20;;;;;;;8.74;100.00;100678.88;2047953;28;20190;-66
2022/11/24 03:45:33;;;;;;;2.63;2.20;;;;;;;8.74;100.00;100678.88;2048144;28;20187;-66
2022/11/24 03:46:33;;;;;;;2.93;2.50;;;;;;;8.72;100.00;100679.28;2048782;28;20187;-66
2022/11/24 03:47:33;;;;;;;2.57;2.20;;;;;;;8.75;100.00;100681.22;2048246;29;20206;-66
2022/11/24 03:48:34;;;;;;;3.20;2.60;;;;;;;7.75;100.00;100515.88;2047706;28;20197;-66
2022/11/24 03:49:35;;;;;;;3.10;2.40;;;;;;;8.82;100.00;100696.91;2048083;28;20195;-65
2022/11/24 03:50:35;;;;;;;4.90;2.40;;;;;;;8.86;100.00;100683.81;2048554;28;20191;-66
2022/11/24 03:51:36;;;;;;;3.47;2.50;;;;;;;8.84;100.00;100681.47;2048342;28;20788;-66
2022/11/24 03:52:36;;;;;;;3.00;2.40;;;;;;;8.81;100.00;100685.06;2048182;28;20192;-66
2022/11/24 03:53:37;;;;;;;4.17;2.50;;;;;;;8.82;100.00;100691.38;2047827;28;20235;-66
2022/11/24 03:54:37;;;;;;;4.27;2.63;;;;;;;8.83;100.00;100684.66;2048636;28;20187;-66
2022/11/24 03:55:38;;;;;;;4.07;2.50;;;;;;;8.82;100.00;100697.66;2048449;28;20570;-65
2022/11/24 03:56:38;;;;;;;3.10;2.50;;;;;;;8.86;100.00;100692.88;2048030;28;20629;-66
2022/11/24 03:57:38;;;;;;;3.50;2.60;;;;;;;8.74;100.00;100685.19;2048216;28;20249;-66
2022/11/24 03:58:39;;;;;;;2.83;2.30;;;;;;;8.82;100.00;100700.44;2047729;28;20195;-65
2022/11/24 03:59:39;;;;;;;2.67;2.40;;;;;;;8.78;100.00;100696.19;2048299;28;20225;-65
2022/11/24 04:00:40;;;;;;;3.17;2.63;;;;;;;8.76;100.00;100698.59;2048461;28;20225;-66
2022/11/24 04:01:40;;;;;;;2.90;2.50;;;;;;;8.77;100.00;100691.84;2047927;28;20199;-65
2022/11/24 04:02:41;;;;;;;3.17;2.47;;;;;;;8.70;100.00;100691.94;2048330;28;20565;-66
2022/11/24 04:03:41;;;;;;;2.80;2.50;;;;;;;8.62;100.00;100696.03;2047851;28;20209;-65
2022/11/24 04:04:42;;;;;;;3.40;2.40;;;;;;;8.59;100.00;100700.41;2047102;28;20237;-65
2022/11/24 04:05:42;;;;;;;3.13;2.60;;;;;;;8.60;100.00;100710.25;2047201;29;20646;-65
2022/11/24 04:06:42;;;;;;;2.67;2.20;;;;;;;8.62;100.00;100707.84;2048242;28;20272;-65
2022/11/24 04:07:43;;;;;;;3.57;2.77;;;;;;;8.62;100.00;100707.06;2048072;28;20373;-65
2022/11/24 04:08:43;;;;;;;4.10;2.60;;;;;;;8.50;100.00;100694.59;2047634;28;20197;-65
2022/11/24 04:09:44;;;;;;;3.53;3.00;;;;;;;8.61;100.00;100706.28;2047947;28;20215;-65
2022/11/24 04:10:49;;;;;;;6.77;3.10;;;;;;;7.96;100.00;100621.22;2048036;29;20256;-66
2022/11/24 04:13:15;;;;;;;3.70;3.10;;;;;;;8.79;100.00;100719.84;2047584;29;20486;-65
2022/11/24 04:14:17;;;;;;;3.90;3.30;;;;;;;8.80;100.00;100718.63;2048319;28;20889;-65
2022/11/24 04:15:18;;;;;;;5.97;3.30;;;;;;;8.78;100.00;100724.59;2048401;28;20815;-66
2022/11/24 04:16:19;;;;;;;5.47;3.60;;;;;;;8.75;100.00;100719.91;2047873;28;20486;-65
2022/11/24 04:17:19;;;;;;;4.63;2.90;;;;;;;8.71;100.00;100726.69;2048037;28;20442;-65
2022/11/24 04:18:20;;;;;;;4.47;3.17;;;;;;;8.36;100.00;100661.66;2047365;29;20188;-65
2022/11/24 04:19:20;;;;;;;4.23;3.00;;;;;;;8.77;100.00;100727.78;2048094;28;20202;-66
2022/11/24 04:20:22;;;;;;;5.53;3.20;;;;;;;8.70;100.00;100714.84;2048094;28;21053;-65
2022/11/24 04:21:22;;;;;;;4.27;3.23;;;;;;;8.77;100.00;100730.53;2047803;28;20196;-65
2022/11/24 04:22:22;;;;;;;4.20;3.10;;;;;;;8.80;100.00;100735.22;2047905;28;20431;-65
2022/11/24 04:23:23;;;;;;;3.50;2.70;;;;;;;8.76;100.00;100732.50;2048071;28;20191;-65
2022/11/24 04:24:23;;;;;;;3.90;2.67;;;;;;;8.81;100.00;100734.81;2048085;28;20202;-66
2022/11/24 04:25:24;;;;;;;5.50;2.93;;;;;;;8.14;100.00;100624.50;2047884;28;20193;-65
2022/11/24 04:26:24;;;;;;;4.07;3.10;;;;;;;8.86;100.00;100731.56;2047324;29;20640;-66
2022/11/24 04:27:25;;;;;;;3.20;2.70;;;;;;;8.88;100.00;100744.97;2047052;29;20595;-65
2022/11/24 04:28:25;;;;;;;2.93;2.50;;;;;;;8.86;100.00;100745.38;2047578;29;20190;-65
2022/11/24 04:29:26;;;;;;;2.83;2.40;;;;;;;8.37;100.00;100674.31;2048015;28;20192;-65
2022/11/24 04:30:27;;;;;;;3.70;2.50;;;;;;;8.77;100.00;100750.66;2048393;28;20202;-65
2022/11/24 04:31:27;;;;;;;3.53;2.43;;;;;;;8.69;100.00;100746.44;2048425;29;20190;-65
2022/11/24 04:32:28;;;;;;;4.93;2.67;;;;;;;8.66;100.00;100750.00;2054744;28;20450;-65
2022/11/24 04:33:28;;;;;;;3.90;2.50;;;;;;;8.74;100.00;100753.47;2055080;28;20550;-65
2022/11/24 04:34:29;;;;;;;3.10;2.30;;;;;;;8.74;100.00;100757.03;2047954;28;20194;-65
2022/11/24 04:35:29;;;;;;;2.50;2.20;;;;;;;8.67;100.00;100751.56;2047996;28;20276;-65
2022/11/24 04:36:30;;;;;;;3.73;2.87;;;;;;;8.64;100.00;100751.63;2047990;28;20191;-65
2022/11/24 04:37:30;;;;;;;3.27;2.50;;;;;;;8.63;100.00;100755.59;2048115;28;20564;-65
2022/11/24 04:38:31;;;;;;;3.07;2.00;;;;;;;7.94;100.00;100647.66;2054982;28;20204;-65
2022/11/24 04:39:31;;;;;;;3.40;2.10;;;;;;;8.64;100.00;100759.91;2055894;28;20633;-65
2022/11/24 04:40:32;;;;;;;2.80;2.10;;;;;;;8.65;100.00;100761.47;2047902;28;20210;-65
2022/11/24 04:41:32;;;;;;;2.97;2.40;;;;;;;8.60;100.00;100759.97;2047763;28;20278;-66
2022/11/24 04:42:33;;;;;;;2.80;2.20;;;;;;;8.18;100.00;100716.31;2047840;29;20668;-66
2022/11/24 04:43:33;;;;;;;2.90;2.10;;;;;;;8.51;100.00;100767.22;2047391;28;20599;-65